CheckWX is a tool to help pilots better visualize weather data.  It is not intended as a substitute for an official pre-flight weather briefing.

01:45:20 UTC

KFOD TAF
Fort Dodge Regional Airport
Fort Dodge, Iowa, USA
KFOD 242326Z 2500/2524 36007KT P6SM SCT007 OVC012 FM250400 33007KT P6SM OVC008 FM251200 30008KT P6SM OVC010 FM252300 30006KT P6SM BKN025

Jan-25@
00:00 UTC

Jan-25 @ 00:00 UTC

Jan-25@
04:00 UTC

Jan-25 @ 04:00 UTC

KFOD 242326Z 2500/2524 36007KT P6SM SCT007 OVC012
Wind
  • 360° at 7 KTS
Cloud Levels
  • Scattered at 700' AGL
  • Overcast at 1,200' AGL

Jan-25@
04:00 UTC

Jan-25 @ 04:00 UTC

Jan-25@
12:00 UTC

Jan-25 @ 12:00 UTC

FM250400 33007KT P6SM OVC008

From

From Standard forecast or significant change

Wind
  • 330° at 7 KTS
Cloud Levels
  • Overcast at 800' AGL

Jan-25@
12:00 UTC

Jan-25 @ 12:00 UTC

Jan-25@
23:00 UTC

Jan-25 @ 23:00 UTC

FM251200 30008KT P6SM OVC010

From

From Standard forecast or significant change

Wind
  • 300° at 8 KTS
Cloud Levels
  • Overcast at 1,000' AGL

Jan-25@
23:00 UTC

Jan-25 @ 23:00 UTC

Jan-26@
00:00 UTC

Jan-26 @ 00:00 UTC

FM252300 30006KT P6SM BKN025

From

From Standard forecast or significant change

Wind
  • 300° at 6 KTS
Cloud Levels
  • Broken at 2,500' AGL